sensor_id;sensor_type;location;lat;lon;timestamp;temperature;humidity
3614;DHT22;1821;50.936;6.854;2023-08-08T00:00:14;14.40;99.90
3614;DHT22;1821;50.936;6.854;2023-08-08T00:00:55;14.50;99.90
3614;DHT22;1821;50.936;6.854;2023-08-08T00:01:37;14.40;99.90
3614;DHT22;1821;50.936;6.854;2023-08-08T00:02:22;14.40;99.90
3614;DHT22;1821;50.936;6.854;2023-08-08T00:03:05;14.50;99.90
3614;DHT22;1821;50.936;6.854;2023-08-08T00:03:46;14.40;99.90
3614;DHT22;1821;50.936;6.854;2023-08-08T00:04:28;14.40;99.90
3614;DHT22;1821;50.936;6.854;2023-08-08T00:05:10;14.40;99.90
3614;DHT22;1821;50.936;6.854;2023-08-08T00:05:52;14.40;99.90
3614;DHT22;1821;50.936;6.854;2023-08-08T00:06:34;14.40;99.90
3614;DHT22;1821;50.936;6.854;2023-08-08T00:07:16;14.30;99.90
3614;DHT22;1821;50.936;6.854;2023-08-08T00:07:58;14.30;99.90
3614;DHT22;1821;50.936;6.854;2023-08-08T00:08:40;14.20;99.90
3614;DHT22;1821;50.936;6.854;2023-08-08T00:09:22;14.20;99.90
3614;DHT22;1821;50.936;6.854;2023-08-08T00:10:05;14.30;99.90
3614;DHT22;1821;50.936;6.854;2023-08-08T00:10:47;14.30;99.90
3614;DHT22;1821;50.936;6.854;2023-08-08T00:11:30;14.20;99.90
3614;DHT22;1821;50.936;6.854;2023-08-08T00:12:12;14.20;99.90
3614;DHT22;1821;50.936;6.854;2023-08-08T00:12:54;14.20;99.90
3614;DHT22;1821;50.936;6.854;2023-08-08T00:13:36;14.20;99.90
3614;DHT22;1821;50.936;6.854;2023-08-08T00:14:18;14.20;99.90
3614;DHT22;1821;50.936;6.854;2023-08-08T00:15:00;14.20;99.90
3614;DHT22;1821;50.936;6.854;2023-08-08T00:16:24;14.20;99.90
3614;DHT22;1821;50.936;6.854;2023-08-08T00:17:06;14.10;99.90
3614;DHT22;1821;50.936;6.854;2023-08-08T00:17:51;14.20;99.90
3614;DHT22;1821;50.936;6.854;2023-08-08T00:18:34;14.20;99.90
3614;DHT22;1821;50.936;6.854;2023-08-08T00:19:16;14.20;99.90
3614;DHT22;1821;50.936;6.854;2023-08-08T00:19:58;14.20;99.90
3614;DHT22;1821;50.936;6.854;2023-08-08T00:20:43;14.20;99.90
3614;DHT22;1821;50.936;6.854;2023-08-08T00:21:25;14.20;99.90
3614;DHT22;1821;50.936;6.854;2023-08-08T00:22:07;14.20;99.90
3614;DHT22;1821;50.936;6.854;2023-08-08T00:22:51;14.10;99.90
3614;DHT22;1821;50.936;6.854;2023-08-08T00:23:33;14.10;99.90
3614;DHT22;1821;50.936;6.854;2023-08-08T00:24:15;14.10;99.90
3614;DHT22;1821;50.936;6.854;2023-08-08T00:24:57;14.20;99.90
3614;DHT22;1821;50.936;6.854;2023-08-08T00:25:38;14.30;99.90
3614;DHT22;1821;50.936;6.854;2023-08-08T00:26:21;14.30;99.90
3614;DHT22;1821;50.936;6.854;2023-08-08T00:27:03;14.40;99.90
3614;DHT22;1821;50.936;6.854;2023-08-08T00:27:45;14.40;99.90
3614;DHT22;1821;50.936;6.854;2023-08-08T00:28:27;14.40;99.90
3614;DHT22;1821;50.936;6.854;2023-08-08T00:29:08;14.30;99.90
3614;DHT22;1821;50.936;6.854;2023-08-08T00:29:53;14.30;99.90
3614;DHT22;1821;50.936;6.854;2023-08-08T00:30:36;14.10;99.90
3614;DHT22;1821;50.936;6.854;2023-08-08T00:31:19;14.20;99.90
3614;DHT22;1821;50.936;6.854;2023-08-08T00:32:01;14.40;99.90
3614;DHT22;1821;50.936;6.854;2023-08-08T00:32:43;14.10;99.90
3614;DHT22;1821;50.936;6.854;2023-08-08T00:33:25;14.30;99.90
3614;DHT22;1821;50.936;6.854;2023-08-08T00:34:07;14.10;99.90
3614;DHT22;1821;50.936;6.854;2023-08-08T00:34:49;14.20;99.90
3614;DHT22;1821;50.936;6.854;2023-08-08T00:35:31;14.20;99.90
3614;DHT22;1821;50.936;6.854;2023-08-08T00:36:13;14.20;99.90
3614;DHT22;1821;50.936;6.854;2023-08-08T00:36:55;14.00;99.90
3614;DHT22;1821;50.936;6.854;2023-08-08T00:37:37;14.20;99.90
3614;DHT22;1821;50.936;6.854;2023-08-08T00:38:21;14.10;99.90
3614;DHT22;1821;50.936;6.854;2023-08-08T00:39:03;14.00;99.90
3614;DHT22;1821;50.936;6.854;2023-08-08T00:39:45;14.20;99.90
3614;DHT22;1821;50.936;6.854;2023-08-08T00:40:27;14.10;99.90
3614;DHT22;1821;50.936;6.854;2023-08-08T00:41:09;14.20;99.90
3614;DHT22;1821;50.936;6.854;2023-08-08T00:41:54;14.20;99.90
3614;DHT22;1821;50.936;6.854;2023-08-08T00:42:35;14.20;99.90
3614;DHT22;1821;50.936;6.854;2023-08-08T00:43:17;14.20;99.90
3614;DHT22;1821;50.936;6.854;2023-08-08T00:44:00;14.30;99.90
3614;DHT22;1821;50.936;6.854;2023-08-08T00:44:42;14.20;99.90
3614;DHT22;1821;50.936;6.854;2023-08-08T00:45:26;14.20;99.90
3614;DHT22;1821;50.936;6.854;2023-08-08T00:46:08;14.20;99.90
3614;DHT22;1821;50.936;6.854;2023-08-08T00:46:53;14.10;99.90
3614;DHT22;1821;50.936;6.854;2023-08-08T00:47:35;14.20;99.90
3614;DHT22;1821;50.936;6.854;2023-08-08T00:48:17;14.20;99.90
3614;DHT22;1821;50.936;6.854;2023-08-08T00:49:01;14.10;99.90
3614;DHT22;1821;50.936;6.854;2023-08-08T00:49:42;14.20;99.90
3614;DHT22;1821;50.936;6.854;2023-08-08T00:50:28;14.20;99.90
3614;DHT22;1821;50.936;6.854;2023-08-08T00:51:10;13.90;99.90
3614;DHT22;1821;50.936;6.854;2023-08-08T00:51:52;14.20;99.90
3614;DHT22;1821;50.936;6.854;2023-08-08T00:52:37;14.20;99.90
3614;DHT22;1821;50.936;6.854;2023-08-08T00:53:23;14.20;99.90
3614;DHT22;1821;50.936;6.854;2023-08-08T00:54:07;14.10;99.90
3614;DHT22;1821;50.936;6.854;2023-08-08T00:54:53;14.10;99.90
3614;DHT22;1821;50.936;6.854;2023-08-08T00:55:35;14.00;99.90
3614;DHT22;1821;50.936;6.854;2023-08-08T00:56:17;14.10;99.90
3614;DHT22;1821;50.936;6.854;2023-08-08T00:56:59;14.00;99.90
3614;DHT22;1821;50.936;6.854;2023-08-08T00:57:41;14.20;99.90
3614;DHT22;1821;50.936;6.854;2023-08-08T00:58:24;14.20;99.90
3614;DHT22;1821;50.936;6.854;2023-08-08T00:59:07;14.20;99.90
3614;DHT22;1821;50.936;6.854;2023-08-08T00:59:51;14.10;99.90
3614;DHT22;1821;50.936;6.854;2023-08-08T01:00:33;14.10;99.90
3614;DHT22;1821;50.936;6.854;2023-08-08T01:01:15;14.20;99.90
3614;DHT22;1821;50.936;6.854;2023-08-08T01:01:58;14.20;99.90
3614;DHT22;1821;50.936;6.854;2023-08-08T01:02:40;14.30;99.90
3614;DHT22;1821;50.936;6.854;2023-08-08T01:03:22;14.20;99.90
3614;DHT22;1821;50.936;6.854;2023-08-08T01:04:04;14.10;99.90
3614;DHT22;1821;50.936;6.854;2023-08-08T01:04:48;14.10;99.90
3614;DHT22;1821;50.936;6.854;2023-08-08T01:07:59;14.10;99.90
3614;DHT22;1821;50.936;6.854;2023-08-08T01:08:51;14.10;99.90
3614;DHT22;1821;50.936;6.854;2023-08-08T01:09:41;14.10;99.90
3614;DHT22;1821;50.936;6.854;2023-08-08T01:10:31;14.10;99.90
3614;DHT22;1821;50.936;6.854;2023-08-08T01:11:15;14.00;99.90
3614;DHT22;1821;50.936;6.854;2023-08-08T01:11:59;14.00;99.90
3614;DHT22;1821;50.936;6.854;2023-08-08T01:12:50;14.10;99.90
3614;DHT22;1821;50.936;6.854;2023-08-08T01:13:33;14.10;99.90
3614;DHT22;1821;50.936;6.854;2023-08-08T01:14:16;14.10;99.90
3614;DHT22;1821;50.936;6.854;2023-08-08T01:15:01;14.10;99.90
3614;DHT22;1821;50.936;6.854;2023-08-08T01:15:46;14.10;99.90
3614;DHT22;1821;50.936;6.854;2023-08-08T01:16:32;14.10;99.90
3614;DHT22;1821;50.936;6.854;2023-08-08T01:17:15;14.20;99.90
3614;DHT22;1821;50.936;6.854;2023-08-08T01:17:58;14.10;99.90
3614;DHT22;1821;50.936;6.854;2023-08-08T01:18:43;14.00;99.90
3614;DHT22;1821;50.936;6.854;2023-08-08T01:19:28;14.10;99.90
3614;DHT22;1821;50.936;6.854;2023-08-08T01:20:11;14.00;99.90
3614;DHT22;1821;50.936;6.854;2023-08-08T01:20:56;14.00;99.90
3614;DHT22;1821;50.936;6.854;2023-08-08T01:21:39;14.00;99.90
3614;DHT22;1821;50.936;6.854;2023-08-08T01:22:25;13.90;99.90
3614;DHT22;1821;50.936;6.854;2023-08-08T01:23:30;13.80;99.90
3614;DHT22;1821;50.936;6.854;2023-08-08T01:24:23;14.00;99.90
3614;DHT22;1821;50.936;6.854;2023-08-08T01:25:06;14.00;99.90
3614;DHT22;1821;50.936;6.854;2023-08-08T01:25:50;14.00;99.90
3614;DHT22;1821;50.936;6.854;2023-08-08T01:26:32;13.60;99.90
3614;DHT22;1821;50.936;6.854;2023-08-08T01:27:15;13.90;99.90
3614;DHT22;1821;50.936;6.854;2023-08-08T01:27:57;13.70;99.90
3614;DHT22;1821;50.936;6.854;2023-08-08T01:28:42;14.00;99.90
3614;DHT22;1821;50.936;6.854;2023-08-08T01:29:25;13.90;99.90
3614;DHT22;1821;50.936;6.854;2023-08-08T01:30:07;13.90;99.90
3614;DHT22;1821;50.936;6.854;2023-08-08T01:30:50;13.90;99.90
3614;DHT22;1821;50.936;6.854;2023-08-08T01:31:32;13.80;99.90
3614;DHT22;1821;50.936;6.854;2023-08-08T01:32:14;13.70;99.90
3614;DHT22;1821;50.936;6.854;2023-08-08T01:32:56;13.70;99.90
3614;DHT22;1821;50.936;6.854;2023-08-08T01:33:40;13.80;99.90
3614;DHT22;1821;50.936;6.854;2023-08-08T01:34:23;14.00;99.90
3614;DHT22;1821;50.936;6.854;2023-08-08T01:35:05;14.00;99.90
3614;DHT22;1821;50.936;6.854;2023-08-08T01:35:52;13.90;99.90
3614;DHT22;1821;50.936;6.854;2023-08-08T01:36:48;13.70;99.90
3614;DHT22;1821;50.936;6.854;2023-08-08T01:37:36;13.70;99.90
3614;DHT22;1821;50.936;6.854;2023-08-08T01:38:25;13.90;99.90
3614;DHT22;1821;50.936;6.854;2023-08-08T01:39:14;13.80;99.90
3614;DHT22;1821;50.936;6.854;2023-08-08T01:39:59;13.80;99.90
3614;DHT22;1821;50.936;6.854;2023-08-08T01:40:43;13.90;99.90
3614;DHT22;1821;50.936;6.854;2023-08-08T01:41:26;13.90;99.90
3614;DHT22;1821;50.936;6.854;2023-08-08T01:42:12;13.80;99.90
3614;DHT22;1821;50.936;6.854;2023-08-08T01:42:54;13.80;99.90
3614;DHT22;1821;50.936;6.854;2023-08-08T01:43:38;13.90;99.90
3614;DHT22;1821;50.936;6.854;2023-08-08T01:44:21;13.90;99.90
3614;DHT22;1821;50.936;6.854;2023-08-08T01:45:05;13.80;99.90
3614;DHT22;1821;50.936;6.854;2023-08-08T01:45:47;13.90;99.90
3614;DHT22;1821;50.936;6.854;2023-08-08T01:46:30;13.80;99.90
3614;DHT22;1821;50.936;6.854;2023-08-08T01:47:13;13.90;99.90
3614;DHT22;1821;50.936;6.854;2023-08-08T01:47:55;13.70;99.90
3614;DHT22;1821;50.936;6.854;2023-08-08T01:48:37;13.80;99.90
3614;DHT22;1821;50.936;6.854;2023-08-08T01:49:19;13.80;99.90
3614;DHT22;1821;50.936;6.854;2023-08-08T01:50:01;13.80;99.90
3614;DHT22;1821;50.936;6.854;2023-08-08T01:50:43;13.80;99.90
3614;DHT22;1821;50.936;6.854;2023-08-08T01:51:26;13.90;99.90
3614;DHT22;1821;50.936;6.854;2023-08-08T01:52:09;13.60;99.90
3614;DHT22;1821;50.936;6.854;2023-08-08T01:52:51;13.80;99.90
3614;DHT22;1821;50.936;6.854;2023-08-08T01:53:33;13.70;99.90
3614;DHT22;1821;50.936;6.854;2023-08-08T01:54:17;13.80;99.90
3614;DHT22;1821;50.936;6.854;2023-08-08T01:54:59;13.80;99.90
3614;DHT22;1821;50.936;6.854;2023-08-08T01:55:41;13.80;99.90
3614;DHT22;1821;50.936;6.854;2023-08-08T01:56:23;13.80;99.90
3614;DHT22;1821;50.936;6.854;2023-08-08T01:57:05;13.80;99.90
3614;DHT22;1821;50.936;6.854;2023-08-08T01:57:47;13.80;99.90
3614;DHT22;1821;50.936;6.854;2023-08-08T01:58:29;13.70;99.90
3614;DHT22;1821;50.936;6.854;2023-08-08T01:59:11;13.70;99.90
3614;DHT22;1821;50.936;6.854;2023-08-08T01:59:56;13.70;99.90
3614;DHT22;1821;50.936;6.854;2023-08-08T02:00:40;13.70;99.90
3614;DHT22;1821;50.936;6.854;2023-08-08T02:01:24;13.70;99.90
3614;DHT22;1821;50.936;6.854;2023-08-08T02:02:06;13.70;99.90
3614;DHT22;1821;50.936;6.854;2023-08-08T02:02:48;13.70;99.90
3614;DHT22;1821;50.936;6.854;2023-08-08T02:03:30;13.70;99.90
3614;DHT22;1821;50.936;6.854;2023-08-08T02:04:13;13.70;99.90
3614;DHT22;1821;50.936;6.854;2023-08-08T02:04:58;13.80;99.90
3614;DHT22;1821;50.936;6.854;2023-08-08T02:05:40;13.70;99.90
3614;DHT22;1821;50.936;6.854;2023-08-08T02:06:22;13.70;99.90
3614;DHT22;1821;50.936;6.854;2023-08-08T02:07:04;13.70;99.90
3614;DHT22;1821;50.936;6.854;2023-08-08T02:07:46;13.60;99.90
3614;DHT22;1821;50.936;6.854;2023-08-08T02:08:28;13.60;99.90
3614;DHT22;1821;50.936;6.854;2023-08-08T02:09:10;13.60;99.90
3614;DHT22;1821;50.936;6.854;2023-08-08T02:09:52;13.60;99.90
3614;DHT22;1821;50.936;6.854;2023-08-08T02:10:34;13.50;99.90
3614;DHT22;1821;50.936;6.854;2023-08-08T02:11:16;13.60;99.90
3614;DHT22;1821;50.936;6.854;2023-08-08T02:11:58;13.40;99.90
3614;DHT22;1821;50.936;6.854;2023-08-08T02:12:40;13.50;99.90
3614;DHT22;1821;50.936;6.854;2023-08-08T02:13:22;13.60;99.90
3614;DHT22;1821;50.936;6.854;2023-08-08T02:14:04;13.50;99.90
3614;DHT22;1821;50.936;6.854;2023-08-08T02:14:46;13.50;99.90
3614;DHT22;1821;50.936;6.854;2023-08-08T02:15:30;13.60;99.90
3614;DHT22;1821;50.936;6.854;2023-08-08T02:16:12;13.60;99.90
3614;DHT22;1821;50.936;6.854;2023-08-08T02:16:56;13.50;99.90
3614;DHT22;1821;50.936;6.854;2023-08-08T02:17:38;13.70;99.90
3614;DHT22;1821;50.936;6.854;2023-08-08T02:18:20;13.60;99.90
3614;DHT22;1821;50.936;6.854;2023-08-08T02:19:02;13.70;99.90
3614;DHT22;1821;50.936;6.854;2023-08-08T02:19:44;13.80;99.90
3614;DHT22;1821;50.936;6.854;2023-08-08T02:20:27;13.70;99.90
3614;DHT22;1821;50.936;6.854;2023-08-08T02:21:11;13.70;99.90
3614;DHT22;1821;50.936;6.854;2023-08-08T02:21:55;13.60;99.90
3614;DHT22;1821;50.936;6.854;2023-08-08T02:22:40;13.70;99.90
3614;DHT22;1821;50.936;6.854;2023-08-08T02:23:22;13.60;99.90
3614;DHT22;1821;50.936;6.854;2023-08-08T02:24:04;13.60;99.90
3614;DHT22;1821;50.936;6.854;2023-08-08T02:24:46;13.60;99.90
3614;DHT22;1821;50.936;6.854;2023-08-08T02:25:28;13.60;99.90
3614;DHT22;1821;50.936;6.854;2023-08-08T02:26:10;13.70;99.90
3614;DHT22;1821;50.936;6.854;2023-08-08T02:26:52;13.70;99.90
3614;DHT22;1821;50.936;6.854;2023-08-08T02:27:34;13.40;99.90
3614;DHT22;1821;50.936;6.854;2023-08-08T02:28:16;13.40;99.90
3614;DHT22;1821;50.936;6.854;2023-08-08T02:29:00;13.40;99.90
3614;DHT22;1821;50.936;6.854;2023-08-08T02:29:44;13.60;99.90
3614;DHT22;1821;50.936;6.854;2023-08-08T02:30:26;13.70;99.90
3614;DHT22;1821;50.936;6.854;2023-08-08T02:31:08;13.70;99.90
3614;DHT22;1821;50.936;6.854;2023-08-08T02:31:50;13.60;99.90
3614;DHT22;1821;50.936;6.854;2023-08-08T02:32:32;13.60;99.90
3614;DHT22;1821;50.936;6.854;2023-08-08T02:33:14;13.70;99.90
3614;DHT22;1821;50.936;6.854;2023-08-08T02:33:56;13.70;99.90
3614;DHT22;1821;50.936;6.854;2023-08-08T02:34:38;13.70;99.90
3614;DHT22;1821;50.936;6.854;2023-08-08T02:35:20;13.60;99.90
3614;DHT22;1821;50.936;6.854;2023-08-08T02:36:04;13.60;99.90
3614;DHT22;1821;50.936;6.854;2023-08-08T02:36:46;13.60;99.90
3614;DHT22;1821;50.936;6.854;2023-08-08T02:37:30;13.70;99.90
3614;DHT22;1821;50.936;6.854;2023-08-08T02:38:12;13.60;99.90
3614;DHT22;1821;50.936;6.854;2023-08-08T02:38:56;13.60;99.90
3614;DHT22;1821;50.936;6.854;2023-08-08T02:39:38;13.40;99.90
3614;DHT22;1821;50.936;6.854;2023-08-08T02:40:20;13.60;99.90
3614;DHT22;1821;50.936;6.854;2023-08-08T02:41:05;13.60;99.90
3614;DHT22;1821;50.936;6.854;2023-08-08T02:41:47;13.60;99.90
3614;DHT22;1821;50.936;6.854;2023-08-08T02:42:29;13.70;99.90
3614;DHT22;1821;50.936;6.854;2023-08-08T02:43:11;13.80;99.90
3614;DHT22;1821;50.936;6.854;2023-08-08T02:43:53;13.50;99.90
3614;DHT22;1821;50.936;6.854;2023-08-08T02:44:37;13.60;99.90
3614;DHT22;1821;50.936;6.854;2023-08-08T02:45:19;13.70;99.90
3614;DHT22;1821;50.936;6.854;2023-08-08T02:46:01;13.70;99.90
3614;DHT22;1821;50.936;6.854;2023-08-08T02:46:43;13.60;99.90
3614;DHT22;1821;50.936;6.854;2023-08-08T02:47:25;13.70;99.90
3614;DHT22;1821;50.936;6.854;2023-08-08T02:48:09;13.50;99.90
3614;DHT22;1821;50.936;6.854;2023-08-08T02:48:51;14.00;99.90
3614;DHT22;1821;50.936;6.854;2023-08-08T02:49:33;13.50;99.90
3614;DHT22;1821;50.936;6.854;2023-08-08T02:50:16;13.60;99.90
3614;DHT22;1821;50.936;6.854;2023-08-08T02:50:57;13.80;99.90
3614;DHT22;1821;50.936;6.854;2023-08-08T02:51:39;13.10;99.90
3614;DHT22;1821;50.936;6.854;2023-08-08T02:52:21;13.40;99.90
3614;DHT22;1821;50.936;6.854;2023-08-08T02:53:03;13.30;99.90
3614;DHT22;1821;50.936;6.854;2023-08-08T02:53:45;13.60;99.90
3614;DHT22;1821;50.936;6.854;2023-08-08T02:54:27;13.50;99.90
3614;DHT22;1821;50.936;6.854;2023-08-08T02:55:11;13.60;99.90
3614;DHT22;1821;50.936;6.854;2023-08-08T02:55:53;13.60;99.90
3614;DHT22;1821;50.936;6.854;2023-08-08T02:56:35;13.70;99.90
3614;DHT22;1821;50.936;6.854;2023-08-08T02:57:20;13.60;99.90
3614;DHT22;1821;50.936;6.854;2023-08-08T02:58:02;13.60;99.90
3614;DHT22;1821;50.936;6.854;2023-08-08T02:58:44;13.70;99.90
3614;DHT22;1821;50.936;6.854;2023-08-08T02:59:26;13.50;99.90
3614;DHT22;1821;50.936;6.854;2023-08-08T03:00:08;13.60;99.90
3614;DHT22;1821;50.936;6.854;2023-08-08T03:00:51;13.50;99.90
3614;DHT22;1821;50.936;6.854;2023-08-08T03:01:34;13.50;99.90
3614;DHT22;1821;50.936;6.854;2023-08-08T03:02:19;13.60;99.90
3614;DHT22;1821;50.936;6.854;2023-08-08T03:03:01;13.60;99.90
3614;DHT22;1821;50.936;6.854;2023-08-08T03:03:44;13.50;99.90
3614;DHT22;1821;50.936;6.854;2023-08-08T03:04:26;13.50;99.90
3614;DHT22;1821;50.936;6.854;2023-08-08T03:05:09;13.50;99.90
3614;DHT22;1821;50.936;6.854;2023-08-08T03:05:50;13.50;99.90
3614;DHT22;1821;50.936;6.854;2023-08-08T03:06:35;13.30;99.90
3614;DHT22;1821;50.936;6.854;2023-08-08T03:07:17;13.40;99.90
3614;DHT22;1821;50.936;6.854;2023-08-08T03:07:59;13.50;99.90
3614;DHT22;1821;50.936;6.854;2023-08-08T03:08:41;13.40;99.90
3614;DHT22;1821;50.936;6.854;2023-08-08T03:09:23;13.40;99.90
3614;DHT22;1821;50.936;6.854;2023-08-08T03:10:05;13.50;99.90
3614;DHT22;1821;50.936;6.854;2023-08-08T03:10:47;13.50;99.90
3614;DHT22;1821;50.936;6.854;2023-08-08T03:11:29;9.60;99.90
3614;DHT22;1821;50.936;6.854;2023-08-08T03:12:11;13.30;99.90
3614;DHT22;1821;50.936;6.854;2023-08-08T03:12:56;13.40;99.90
3614;DHT22;1821;50.936;6.854;2023-08-08T03:13:38;13.50;99.90
3614;DHT22;1821;50.936;6.854;2023-08-08T03:14:20;13.30;99.90
3614;DHT22;1821;50.936;6.854;2023-08-08T03:15:01;13.40;99.90
3614;DHT22;1821;50.936;6.854;2023-08-08T03:15:43;13.60;99.90
3614;DHT22;1821;50.936;6.854;2023-08-08T03:16:25;13.50;99.90
3614;DHT22;1821;50.936;6.854;2023-08-08T03:17:07;13.50;99.90
3614;DHT22;1821;50.936;6.854;2023-08-08T03:17:52;13.30;99.90
3614;DHT22;1821;50.936;6.854;2023-08-08T03:18:34;13.30;99.90
3614;DHT22;1821;50.936;6.854;2023-08-08T03:19:16;13.40;99.90
3614;DHT22;1821;50.936;6.854;2023-08-08T03:19:58;13.50;99.90
3614;DHT22;1821;50.936;6.854;2023-08-08T03:20:40;13.50;99.90
3614;DHT22;1821;50.936;6.854;2023-08-08T03:21:22;13.30;99.90
3614;DHT22;1821;50.936;6.854;2023-08-08T03:22:04;13.30;99.90
3614;DHT22;1821;50.936;6.854;2023-08-08T03:22:45;13.60;99.90
3614;DHT22;1821;50.936;6.854;2023-08-08T03:23:28;13.40;99.90
3614;DHT22;1821;50.936;6.854;2023-08-08T03:24:10;13.20;99.90
3614;DHT22;1821;50.936;6.854;2023-08-08T03:24:51;13.40;99.90
3614;DHT22;1821;50.936;6.854;2023-08-08T03:25:33;13.40;99.90
3614;DHT22;1821;50.936;6.854;2023-08-08T03:26:15;13.00;99.90
3614;DHT22;1821;50.936;6.854;2023-08-08T03:26:57;13.30;99.90
3614;DHT22;1821;50.936;6.854;2023-08-08T03:27:40;13.30;99.90
3614;DHT22;1821;50.936;6.854;2023-08-08T03:28:21;13.40;99.90
3614;DHT22;1821;50.936;6.854;2023-08-08T03:29:03;13.30;99.90
3614;DHT22;1821;50.936;6.854;2023-08-08T03:29:45;13.30;99.90
3614;DHT22;1821;50.936;6.854;2023-08-08T03:30:27;13.30;99.90
3614;DHT22;1821;50.936;6.854;2023-08-08T03:31:09;13.30;99.90
3614;DHT22;1821;50.936;6.854;2023-08-08T03:31:51;13.30;99.90
3614;DHT22;1821;50.936;6.854;2023-08-08T03:32:36;13.30;99.90
3614;DHT22;1821;50.936;6.854;2023-08-08T03:33:18;13.30;99.90
3614;DHT22;1821;50.936;6.854;2023-08-08T03:34:00;13.30;99.90
3614;DHT22;1821;50.936;6.854;2023-08-08T03:34:42;13.20;99.90
3614;DHT22;1821;50.936;6.854;2023-08-08T03:35:24;13.30;99.90
3614;DHT22;1821;50.936;6.854;2023-08-08T03:36:06;13.20;99.90
3614;DHT22;1821;50.936;6.854;2023-08-08T03:36:48;13.30;99.90
3614;DHT22;1821;50.936;6.854;2023-08-08T03:37:32;13.20;99.90
3614;DHT22;1821;50.936;6.854;2023-08-08T03:38:15;13.30;99.90
3614;DHT22;1821;50.936;6.854;2023-08-08T03:38:57;13.20;99.90
3614;DHT22;1821;50.936;6.854;2023-08-08T03:39:41;13.30;99.90
3614;DHT22;1821;50.936;6.854;2023-08-08T03:40:22;13.20;99.90
3614;DHT22;1821;50.936;6.854;2023-08-08T03:41:05;13.30;99.90
3614;DHT22;1821;50.936;6.854;2023-08-08T03:41:47;13.30;99.90
3614;DHT22;1821;50.936;6.854;2023-08-08T03:42:29;13.30;99.90
3614;DHT22;1821;50.936;6.854;2023-08-08T03:43:11;13.20;99.90
3614;DHT22;1821;50.936;6.854;2023-08-08T03:43:53;13.20;99.90
3614;DHT22;1821;50.936;6.854;2023-08-08T03:44:35;13.20;99.90
3614;DHT22;1821;50.936;6.854;2023-08-08T03:45:17;13.30;99.90
3614;DHT22;1821;50.936;6.854;2023-08-08T03:45:59;13.30;99.90
3614;DHT22;1821;50.936;6.854;2023-08-08T03:46:41;13.20;99.90
3614;DHT22;1821;50.936;6.854;2023-08-08T03:47:22;13.20;99.90
3614;DHT22;1821;50.936;6.854;2023-08-08T03:48:05;13.30;99.90
3614;DHT22;1821;50.936;6.854;2023-08-08T03:48:47;13.30;99.90
3614;DHT22;1821;50.936;6.854;2023-08-08T03:49:29;13.30;99.90
3614;DHT22;1821;50.936;6.854;2023-08-08T03:50:11;13.10;99.90
3614;DHT22;1821;50.936;6.854;2023-08-08T03:50:53;13.10;99.90
3614;DHT22;1821;50.936;6.854;2023-08-08T03:51:35;13.20;99.90
3614;DHT22;1821;50.936;6.854;2023-08-08T03:52:17;13.20;99.90
3614;DHT22;1821;50.936;6.854;2023-08-08T03:52:59;13.20;99.90
3614;DHT22;1821;50.936;6.854;2023-08-08T03:53:41;13.30;99.90
3614;DHT22;1821;50.936;6.854;2023-08-08T03:54:23;13.30;99.90
3614;DHT22;1821;50.936;6.854;2023-08-08T03:55:05;13.20;99.90
3614;DHT22;1821;50.936;6.854;2023-08-08T03:55:49;13.30;99.90
3614;DHT22;1821;50.936;6.854;2023-08-08T03:56:31;13.20;99.90
3614;DHT22;1821;50.936;6.854;2023-08-08T03:57:16;13.30;99.90
3614;DHT22;1821;50.936;6.854;2023-08-08T03:57:58;13.30;99.90
3614;DHT22;1821;50.936;6.854;2023-08-08T03:58:40;13.30;99.90
3614;DHT22;1821;50.936;6.854;2023-08-08T03:59:21;13.30;99.90
3614;DHT22;1821;50.936;6.854;2023-08-08T04:00:06;13.30;99.90
3614;DHT22;1821;50.936;6.854;2023-08-08T04:00:50;13.30;99.90
3614;DHT22;1821;50.936;6.854;2023-08-08T04:01:32;13.30;99.90
3614;DHT22;1821;50.936;6.854;2023-08-08T04:02:14;13.30;99.90
3614;DHT22;1821;50.936;6.854;2023-08-08T04:02:56;13.20;99.90
3614;DHT22;1821;50.936;6.854;2023-08-08T04:03:38;13.10;99.90
3614;DHT22;1821;50.936;6.854;2023-08-08T04:04:20;13.30;99.90
3614;DHT22;1821;50.936;6.854;2023-08-08T04:05:02;13.20;99.90
3614;DHT22;1821;50.936;6.854;2023-08-08T04:05:45;13.40;99.90
3614;DHT22;1821;50.936;6.854;2023-08-08T04:06:30;13.30;99.90
3614;DHT22;1821;50.936;6.854;2023-08-08T04:07:12;13.20;99.90
3614;DHT22;1821;50.936;6.854;2023-08-08T04:07:54;13.30;99.90
3614;DHT22;1821;50.936;6.854;2023-08-08T04:08:36;13.20;99.90
3614;DHT22;1821;50.936;6.854;2023-08-08T04:09:20;13.20;99.90
3614;DHT22;1821;50.936;6.854;2023-08-08T04:10:02;13.20;99.90
3614;DHT22;1821;50.936;6.854;2023-08-08T04:10:46;13.30;99.90
3614;DHT22;1821;50.936;6.854;2023-08-08T04:11:31;13.30;99.90
3614;DHT22;1821;50.936;6.854;2023-08-08T04:12:13;13.40;99.90
3614;DHT22;1821;50.936;6.854;2023-08-08T04:12:55;13.40;99.90
3614;DHT22;1821;50.936;6.854;2023-08-08T04:13:37;13.20;99.90
3614;DHT22;1821;50.936;6.854;2023-08-08T04:14:19;13.10;99.90
3614;DHT22;1821;50.936;6.854;2023-08-08T04:15:01;13.30;99.90
3614;DHT22;1821;50.936;6.854;2023-08-08T04:15:43;13.30;99.90
3614;DHT22;1821;50.936;6.854;2023-08-08T04:16:26;13.40;99.90
3614;DHT22;1821;50.936;6.854;2023-08-08T04:17:10;13.40;99.90
3614;DHT22;1821;50.936;6.854;2023-08-08T04:17:52;13.30;99.90
3614;DHT22;1821;50.936;6.854;2023-08-08T04:18:34;13.40;99.90
3614;DHT22;1821;50.936;6.854;2023-08-08T04:19:16;13.40;99.90
3614;DHT22;1821;50.936;6.854;2023-08-08T04:19:58;13.40;99.90
3614;DHT22;1821;50.936;6.854;2023-08-08T04:20:40;13.40;99.90
3614;DHT22;1821;50.936;6.854;2023-08-08T04:21:22;13.30;99.90
3614;DHT22;1821;50.936;6.854;2023-08-08T04:22:05;13.30;99.90
3614;DHT22;1821;50.936;6.854;2023-08-08T04:22:47;13.30;99.90
3614;DHT22;1821;50.936;6.854;2023-08-08T04:23:29;13.20;99.90
3614;DHT22;1821;50.936;6.854;2023-08-08T04:24:11;13.50;99.90
3614;DHT22;1821;50.936;6.854;2023-08-08T04:24:56;13.50;99.90
3614;DHT22;1821;50.936;6.854;2023-08-08T04:25:38;13.40;99.90
3614;DHT22;1821;50.936;6.854;2023-08-08T04:26:20;13.30;99.90
3614;DHT22;1821;50.936;6.854;2023-08-08T04:27:02;13.20;99.90
3614;DHT22;1821;50.936;6.854;2023-08-08T04:27:45;13.30;99.90
3614;DHT22;1821;50.936;6.854;2023-08-08T04:28:27;13.30;99.90
3614;DHT22;1821;50.936;6.854;2023-08-08T04:29:09;13.20;99.90
3614;DHT22;1821;50.936;6.854;2023-08-08T04:29:51;13.00;99.90
3614;DHT22;1821;50.936;6.854;2023-08-08T04:30:36;13.40;99.90
3614;DHT22;1821;50.936;6.854;2023-08-08T04:31:20;13.30;99.90
3614;DHT22;1821;50.936;6.854;2023-08-08T04:32:02;13.40;99.90
3614;DHT22;1821;50.936;6.854;2023-08-08T04:32:44;13.30;99.90
3614;DHT22;1821;50.936;6.854;2023-08-08T04:33:26;13.30;99.90
3614;DHT22;1821;50.936;6.854;2023-08-08T04:34:09;13.50;99.90
3614;DHT22;1821;50.936;6.854;2023-08-08T04:34:51;13.30;99.90
3614;DHT22;1821;50.936;6.854;2023-08-08T04:35:35;13.40;99.90
3614;DHT22;1821;50.936;6.854;2023-08-08T04:36:18;13.40;99.90
3614;DHT22;1821;50.936;6.854;2023-08-08T04:37:02;13.30;99.90
3614;DHT22;1821;50.936;6.854;2023-08-08T04:37:44;14.10;99.90
3614;DHT22;1821;50.936;6.854;2023-08-08T04:38:26;13.10;99.90
3614;DHT22;1821;50.936;6.854;2023-08-08T04:39:10;13.40;99.90
3614;DHT22;1821;50.936;6.854;2023-08-08T04:39:52;13.30;99.90
3614;DHT22;1821;50.936;6.854;2023-08-08T04:40:34;13.30;99.90
3614;DHT22;1821;50.936;6.854;2023-08-08T04:41:18;13.40;99.90
3614;DHT22;1821;50.936;6.854;2023-08-08T04:42:00;13.30;99.90
3614;DHT22;1821;50.936;6.854;2023-08-08T04:42:43;13.30;99.90